sensor_id;sensor_type;location;lat;lon;timestamp;temperature;humidity
20380;DHT22;10349;48.666;8.948;2023-09-19T00:00:22;15.30;99.90
20380;DHT22;10349;48.666;8.948;2023-09-19T00:02:56;15.20;99.90
20380;DHT22;10349;48.666;8.948;2023-09-19T00:05:27;15.20;99.90
20380;DHT22;10349;48.666;8.948;2023-09-19T00:07:56;15.20;99.90
20380;DHT22;10349;48.666;8.948;2023-09-19T00:10:24;15.20;99.90
20380;DHT22;10349;48.666;8.948;2023-09-19T00:12:54;15.10;99.90
20380;DHT22;10349;48.666;8.948;2023-09-19T00:15:26;15.10;99.90
20380;DHT22;10349;48.666;8.948;2023-09-19T00:17:54;15.10;99.90
20380;DHT22;10349;48.666;8.948;2023-09-19T00:20:21;15.10;99.90
20380;DHT22;10349;48.666;8.948;2023-09-19T00:22:49;15.10;99.90
20380;DHT22;10349;48.666;8.948;2023-09-19T00:25:19;15.10;99.90
20380;DHT22;10349;48.666;8.948;2023-09-19T00:27:45;15.10;99.90
20380;DHT22;10349;48.666;8.948;2023-09-19T00:30:17;15.10;99.90
20380;DHT22;10349;48.666;8.948;2023-09-19T00:32:47;15.10;99.90
20380;DHT22;10349;48.666;8.948;2023-09-19T00:35:16;15.10;99.90
20380;DHT22;10349;48.666;8.948;2023-09-19T00:37:42;15.00;99.90
20380;DHT22;10349;48.666;8.948;2023-09-19T00:40:09;15.10;99.90
20380;DHT22;10349;48.666;8.948;2023-09-19T00:42:39;15.10;99.90
20380;DHT22;10349;48.666;8.948;2023-09-19T00:45:07;15.10;99.90
20380;DHT22;10349;48.666;8.948;2023-09-19T00:47:35;15.00;99.90
20380;DHT22;10349;48.666;8.948;2023-09-19T00:50:01;15.00;99.90
20380;DHT22;10349;48.666;8.948;2023-09-19T00:52:28;15.00;99.90
20380;DHT22;10349;48.666;8.948;2023-09-19T00:54:54;15.00;99.90
20380;DHT22;10349;48.666;8.948;2023-09-19T00:57:20;15.00;99.90
20380;DHT22;10349;48.666;8.948;2023-09-19T00:59:50;15.10;99.90
20380;DHT22;10349;48.666;8.948;2023-09-19T01:02:16;15.10;99.90
20380;DHT22;10349;48.666;8.948;2023-09-19T01:04:42;15.10;99.90
20380;DHT22;10349;48.666;8.948;2023-09-19T01:07:08;15.10;99.90
20380;DHT22;10349;48.666;8.948;2023-09-19T01:09:35;15.10;99.90
20380;DHT22;10349;48.666;8.948;2023-09-19T01:12:02;15.10;99.90
20380;DHT22;10349;48.666;8.948;2023-09-19T01:17:20;15.10;99.90
20380;DHT22;10349;48.666;8.948;2023-09-19T01:20:03;15.00;99.90
20380;DHT22;10349;48.666;8.948;2023-09-19T01:23:10;15.10;99.90
20380;DHT22;10349;48.666;8.948;2023-09-19T01:31:04;15.00;99.90
20380;DHT22;10349;48.666;8.948;2023-09-19T01:33:57;15.00;99.90
20380;DHT22;10349;48.666;8.948;2023-09-19T01:36:33;15.00;99.90
20380;DHT22;10349;48.666;8.948;2023-09-19T01:39:06;15.00;99.90
20380;DHT22;10349;48.666;8.948;2023-09-19T01:45:11;15.00;99.90
20380;DHT22;10349;48.666;8.948;2023-09-19T01:47:43;14.90;99.90
20380;DHT22;10349;48.666;8.948;2023-09-19T01:50:31;14.90;99.90
20380;DHT22;10349;48.666;8.948;2023-09-19T01:53:04;15.00;99.90
20380;DHT22;10349;48.666;8.948;2023-09-19T01:55:30;15.00;99.90
20380;DHT22;10349;48.666;8.948;2023-09-19T01:58:35;15.00;99.90
20380;DHT22;10349;48.666;8.948;2023-09-19T02:01:01;14.90;99.90
20380;DHT22;10349;48.666;8.948;2023-09-19T02:03:27;15.00;99.90
20380;DHT22;10349;48.666;8.948;2023-09-19T02:05:54;15.00;99.90
20380;DHT22;10349;48.666;8.948;2023-09-19T02:08:22;15.00;99.90
20380;DHT22;10349;48.666;8.948;2023-09-19T02:10:51;14.90;99.90
20380;DHT22;10349;48.666;8.948;2023-09-19T02:13:19;15.00;99.90
20380;DHT22;10349;48.666;8.948;2023-09-19T02:15:46;15.00;99.90
20380;DHT22;10349;48.666;8.948;2023-09-19T02:18:13;14.90;99.90
20380;DHT22;10349;48.666;8.948;2023-09-19T02:20:39;14.90;99.90
20380;DHT22;10349;48.666;8.948;2023-09-19T02:23:05;14.90;99.90
20380;DHT22;10349;48.666;8.948;2023-09-19T02:25:31;14.90;99.90
20380;DHT22;10349;48.666;8.948;2023-09-19T02:27:57;14.90;99.90
20380;DHT22;10349;48.666;8.948;2023-09-19T02:30:27;14.80;99.90
20380;DHT22;10349;48.666;8.948;2023-09-19T02:32:54;14.80;99.90
20380;DHT22;10349;48.666;8.948;2023-09-19T02:35:19;14.80;99.90
20380;DHT22;10349;48.666;8.948;2023-09-19T02:37:49;14.70;99.90
20380;DHT22;10349;48.666;8.948;2023-09-19T02:40:15;14.70;99.90
20380;DHT22;10349;48.666;8.948;2023-09-19T02:42:55;14.60;99.90
20380;DHT22;10349;48.666;8.948;2023-09-19T02:45:22;14.60;99.90
20380;DHT22;10349;48.666;8.948;2023-09-19T02:47:49;14.60;99.90
20380;DHT22;10349;48.666;8.948;2023-09-19T02:50:15;14.50;99.90
20380;DHT22;10349;48.666;8.948;2023-09-19T02:52:44;14.60;99.90
20380;DHT22;10349;48.666;8.948;2023-09-19T02:55:11;14.70;99.90
20380;DHT22;10349;48.666;8.948;2023-09-19T02:57:40;14.60;99.90
20380;DHT22;10349;48.666;8.948;2023-09-19T03:00:09;14.80;99.90
20380;DHT22;10349;48.666;8.948;2023-09-19T03:02:36;14.70;99.90
20380;DHT22;10349;48.666;8.948;2023-09-19T03:05:04;14.70;99.90
20380;DHT22;10349;48.666;8.948;2023-09-19T03:07:29;14.70;99.90
20380;DHT22;10349;48.666;8.948;2023-09-19T03:09:55;14.70;99.90
20380;DHT22;10349;48.666;8.948;2023-09-19T03:12:21;14.70;99.90
20380;DHT22;10349;48.666;8.948;2023-09-19T03:14:48;14.70;99.90
20380;DHT22;10349;48.666;8.948;2023-09-19T03:17:13;14.70;99.90
20380;DHT22;10349;48.666;8.948;2023-09-19T03:19:40;14.70;99.90
20380;DHT22;10349;48.666;8.948;2023-09-19T03:22:06;14.70;99.90
20380;DHT22;10349;48.666;8.948;2023-09-19T03:24:33;14.80;99.90
20380;DHT22;10349;48.666;8.948;2023-09-19T03:26:59;14.80;99.90
20380;DHT22;10349;48.666;8.948;2023-09-19T03:29:25;14.90;99.90
20380;DHT22;10349;48.666;8.948;2023-09-19T03:31:51;14.80;99.90
20380;DHT22;10349;48.666;8.948;2023-09-19T03:34:17;14.80;99.90
20380;DHT22;10349;48.666;8.948;2023-09-19T03:36:43;14.80;99.90
20380;DHT22;10349;48.666;8.948;2023-09-19T03:39:08;14.90;99.90
20380;DHT22;10349;48.666;8.948;2023-09-19T03:41:34;14.90;99.90
20380;DHT22;10349;48.666;8.948;2023-09-19T03:44:02;14.80;99.90
20380;DHT22;10349;48.666;8.948;2023-09-19T03:46:28;14.80;99.90
20380;DHT22;10349;48.666;8.948;2023-09-19T03:48:55;14.80;99.90
20380;DHT22;10349;48.666;8.948;2023-09-19T03:51:21;14.90;99.90
20380;DHT22;10349;48.666;8.948;2023-09-19T03:53:47;14.80;99.90
20380;DHT22;10349;48.666;8.948;2023-09-19T03:56:14;14.80;99.90
20380;DHT22;10349;48.666;8.948;2023-09-19T03:58:40;14.80;99.90
20380;DHT22;10349;48.666;8.948;2023-09-19T04:01:06;14.80;99.90
20380;DHT22;10349;48.666;8.948;2023-09-19T04:03:35;14.80;99.90
20380;DHT22;10349;48.666;8.948;2023-09-19T04:06:12;14.80;99.90
20380;DHT22;10349;48.666;8.948;2023-09-19T04:08:38;14.90;99.90
20380;DHT22;10349;48.666;8.948;2023-09-19T04:11:04;14.80;99.90
20380;DHT22;10349;48.666;8.948;2023-09-19T04:13:29;14.90;99.90
20380;DHT22;10349;48.666;8.948;2023-09-19T04:15:55;14.90;99.90
20380;DHT22;10349;48.666;8.948;2023-09-19T04:18:22;15.00;99.90
20380;DHT22;10349;48.666;8.948;2023-09-19T04:20:55;15.00;99.90
20380;DHT22;10349;48.666;8.948;2023-09-19T04:23:21;15.00;99.90
20380;DHT22;10349;48.666;8.948;2023-09-19T04:25:47;15.00;99.90
20380;DHT22;10349;48.666;8.948;2023-09-19T04:28:14;15.00;99.90
20380;DHT22;10349;48.666;8.948;2023-09-19T04:30:41;15.00;99.90
20380;DHT22;10349;48.666;8.948;2023-09-19T04:33:07;15.00;99.90
20380;DHT22;10349;48.666;8.948;2023-09-19T04:35:33;15.00;99.90
20380;DHT22;10349;48.666;8.948;2023-09-19T04:37:59;15.00;99.90
20380;DHT22;10349;48.666;8.948;2023-09-19T04:40:25;15.00;99.90
20380;DHT22;10349;48.666;8.948;2023-09-19T04:42:56;15.00;99.90
20380;DHT22;10349;48.666;8.948;2023-09-19T04:45:25;15.00;99.90
20380;DHT22;10349;48.666;8.948;2023-09-19T04:47:52;15.00;99.90
20380;DHT22;10349;48.666;8.948;2023-09-19T04:50:18;15.00;99.90
20380;DHT22;10349;48.666;8.948;2023-09-19T04:52:44;15.00;99.90
20380;DHT22;10349;48.666;8.948;2023-09-19T04:55:14;15.00;99.90
20380;DHT22;10349;48.666;8.948;2023-09-19T04:57:49;15.00;99.90
20380;DHT22;10349;48.666;8.948;2023-09-19T05:00:16;15.10;99.90
20380;DHT22;10349;48.666;8.948;2023-09-19T05:02:45;15.00;99.90
20380;DHT22;10349;48.666;8.948;2023-09-19T05:05:11;15.00;99.90
20380;DHT22;10349;48.666;8.948;2023-09-19T05:07:39;14.90;99.90
20380;DHT22;10349;48.666;8.948;2023-09-19T05:10:05;14.90;99.90
20380;DHT22;10349;48.666;8.948;2023-09-19T05:12:35;14.90;99.90
20380;DHT22;10349;48.666;8.948;2023-09-19T05:15:05;14.90;99.90
20380;DHT22;10349;48.666;8.948;2023-09-19T05:17:33;14.80;99.90
20380;DHT22;10349;48.666;8.948;2023-09-19T05:19:59;14.80;99.90
20380;DHT22;10349;48.666;8.948;2023-09-19T05:22:31;14.80;99.90
20380;DHT22;10349;48.666;8.948;2023-09-19T05:24:58;14.80;99.90
20380;DHT22;10349;48.666;8.948;2023-09-19T05:27:24;14.80;99.90
20380;DHT22;10349;48.666;8.948;2023-09-19T05:29:49;14.80;99.90
20380;DHT22;10349;48.666;8.948;2023-09-19T05:32:18;14.80;99.90
20380;DHT22;10349;48.666;8.948;2023-09-19T05:34:45;14.80;99.90
20380;DHT22;10349;48.666;8.948;2023-09-19T05:37:12;14.80;99.90
20380;DHT22;10349;48.666;8.948;2023-09-19T05:39:41;14.90;99.90
20380;DHT22;10349;48.666;8.948;2023-09-19T05:42:08;14.90;99.90
20380;DHT22;10349;48.666;8.948;2023-09-19T05:44:33;14.90;99.90
20380;DHT22;10349;48.666;8.948;2023-09-19T05:46:59;14.90;99.90
20380;DHT22;10349;48.666;8.948;2023-09-19T05:49:25;14.90;99.90
20380;DHT22;10349;48.666;8.948;2023-09-19T05:51:51;14.90;99.90
20380;DHT22;10349;48.666;8.948;2023-09-19T05:54:19;14.90;99.90
20380;DHT22;10349;48.666;8.948;2023-09-19T05:56:45;14.90;99.90
20380;DHT22;10349;48.666;8.948;2023-09-19T05:59:12;15.00;99.90
20380;DHT22;10349;48.666;8.948;2023-09-19T06:01:42;14.90;99.90
20380;DHT22;10349;48.666;8.948;2023-09-19T06:04:07;14.90;99.90
20380;DHT22;10349;48.666;8.948;2023-09-19T06:06:33;15.10;99.90
20380;DHT22;10349;48.666;8.948;2023-09-19T06:09:02;15.00;99.90
20380;DHT22;10349;48.666;8.948;2023-09-19T06:11:32;14.90;99.90
20380;DHT22;10349;48.666;8.948;2023-09-19T06:14:04;14.90;99.90
20380;DHT22;10349;48.666;8.948;2023-09-19T06:16:30;14.80;99.90
20380;DHT22;10349;48.666;8.948;2023-09-19T06:18:57;14.90;99.90
20380;DHT22;10349;48.666;8.948;2023-09-19T06:21:26;14.80;99.90
20380;DHT22;10349;48.666;8.948;2023-09-19T06:23:53;14.80;99.90
20380;DHT22;10349;48.666;8.948;2023-09-19T06:26:18;14.80;99.90
20380;DHT22;10349;48.666;8.948;2023-09-19T06:28:44;14.90;99.90
20380;DHT22;10349;48.666;8.948;2023-09-19T06:31:10;14.80;99.90
20380;DHT22;10349;48.666;8.948;2023-09-19T06:33:37;14.70;99.90
20380;DHT22;10349;48.666;8.948;2023-09-19T06:36:06;14.70;99.90
20380;DHT22;10349;48.666;8.948;2023-09-19T06:38:32;14.70;99.90
20380;DHT22;10349;48.666;8.948;2023-09-19T06:41:00;14.80;99.90
20380;DHT22;10349;48.666;8.948;2023-09-19T06:43:26;14.80;99.90
20380;DHT22;10349;48.666;8.948;2023-09-19T06:45:53;14.90;99.90
20380;DHT22;10349;48.666;8.948;2023-09-19T06:48:21;14.90;99.90
20380;DHT22;10349;48.666;8.948;2023-09-19T06:50:47;15.00;99.90
20380;DHT22;10349;48.666;8.948;2023-09-19T06:53:13;15.00;99.90
20380;DHT22;10349;48.666;8.948;2023-09-19T06:55:39;15.10;99.90
20380;DHT22;10349;48.666;8.948;2023-09-19T06:58:05;15.20;99.90
20380;DHT22;10349;48.666;8.948;2023-09-19T07:00:31;15.20;99.90
20380;DHT22;10349;48.666;8.948;2023-09-19T07:03:04;15.20;99.90
20380;DHT22;10349;48.666;8.948;2023-09-19T07:05:31;15.20;99.90
20380;DHT22;10349;48.666;8.948;2023-09-19T07:07:59;15.30;99.90
20380;DHT22;10349;48.666;8.948;2023-09-19T07:10:25;15.30;99.90
20380;DHT22;10349;48.666;8.948;2023-09-19T07:12:59;15.40;99.90
20380;DHT22;10349;48.666;8.948;2023-09-19T07:15:25;15.40;99.90
20380;DHT22;10349;48.666;8.948;2023-09-19T07:17:52;15.50;99.90
20380;DHT22;10349;48.666;8.948;2023-09-19T07:20:23;15.50;99.90
20380;DHT22;10349;48.666;8.948;2023-09-19T07:22:51;15.60;99.90
20380;DHT22;10349;48.666;8.948;2023-09-19T07:25:17;15.60;99.90
20380;DHT22;10349;48.666;8.948;2023-09-19T07:27:43;15.70;99.90
20380;DHT22;10349;48.666;8.948;2023-09-19T07:30:10;15.70;99.90
20380;DHT22;10349;48.666;8.948;2023-09-19T07:32:37;15.80;99.90
20380;DHT22;10349;48.666;8.948;2023-09-19T07:35:04;15.80;99.90
20380;DHT22;10349;48.666;8.948;2023-09-19T07:37:31;15.80;99.90
20380;DHT22;10349;48.666;8.948;2023-09-19T07:39:59;15.90;99.90
20380;DHT22;10349;48.666;8.948;2023-09-19T07:42:27;15.90;99.90
20380;DHT22;10349;48.666;8.948;2023-09-19T07:44:52;15.90;99.90
20380;DHT22;10349;48.666;8.948;2023-09-19T07:47:20;15.90;99.90
20380;DHT22;10349;48.666;8.948;2023-09-19T07:49:47;16.00;99.90
20380;DHT22;10349;48.666;8.948;2023-09-19T07:52:13;16.00;99.90
20380;DHT22;10349;48.666;8.948;2023-09-19T07:54:39;16.00;99.90
20380;DHT22;10349;48.666;8.948;2023-09-19T07:57:10;16.00;99.90
20380;DHT22;10349;48.666;8.948;2023-09-19T07:59:37;16.10;99.90
20380;DHT22;10349;48.666;8.948;2023-09-19T08:02:04;16.10;99.90
20380;DHT22;10349;48.666;8.948;2023-09-19T08:04:30;16.20;99.90
20380;DHT22;10349;48.666;8.948;2023-09-19T08:06:59;16.20;99.90
20380;DHT22;10349;48.666;8.948;2023-09-19T08:09:26;16.30;99.90
20380;DHT22;10349;48.666;8.948;2023-09-19T08:11:53;16.40;99.90
20380;DHT22;10349;48.666;8.948;2023-09-19T08:14:18;16.40;99.90
20380;DHT22;10349;48.666;8.948;2023-09-19T08:16:44;16.40;99.90
20380;DHT22;10349;48.666;8.948;2023-09-19T08:19:10;16.40;99.90
20380;DHT22;10349;48.666;8.948;2023-09-19T08:21:36;16.40;99.90
20380;DHT22;10349;48.666;8.948;2023-09-19T08:24:02;16.40;99.90
20380;DHT22;10349;48.666;8.948;2023-09-19T08:26:31;16.50;99.90
20380;DHT22;10349;48.666;8.948;2023-09-19T08:28:57;16.60;99.90
20380;DHT22;10349;48.666;8.948;2023-09-19T08:31:25;16.60;99.90
20380;DHT22;10349;48.666;8.948;2023-09-19T08:33:52;16.60;99.90
20380;DHT22;10349;48.666;8.948;2023-09-19T08:36:18;16.70;99.90
20380;DHT22;10349;48.666;8.948;2023-09-19T08:38:44;16.80;99.90
20380;DHT22;10349;48.666;8.948;2023-09-19T08:41:09;16.90;99.90
20380;DHT22;10349;48.666;8.948;2023-09-19T08:43:36;16.90;99.90
20380;DHT22;10349;48.666;8.948;2023-09-19T08:46:15;17.10;99.90
20380;DHT22;10349;48.666;8.948;2023-09-19T08:49:04;17.20;99.90
20380;DHT22;10349;48.666;8.948;2023-09-19T08:51:41;17.30;99.90
20380;DHT22;10349;48.666;8.948;2023-09-19T08:54:16;17.40;99.90
20380;DHT22;10349;48.666;8.948;2023-09-19T08:56:48;17.50;99.90
20380;DHT22;10349;48.666;8.948;2023-09-19T08:59:15;17.50;99.90
20380;DHT22;10349;48.666;8.948;2023-09-19T09:01:42;17.50;99.90
20380;DHT22;10349;48.666;8.948;2023-09-19T09:04:09;17.50;99.90
20380;DHT22;10349;48.666;8.948;2023-09-19T09:06:38;17.40;99.90
20380;DHT22;10349;48.666;8.948;2023-09-19T09:09:05;17.50;99.90
20380;DHT22;10349;48.666;8.948;2023-09-19T09:11:34;17.50;99.90
20380;DHT22;10349;48.666;8.948;2023-09-19T09:13:59;17.40;99.90
20380;DHT22;10349;48.666;8.948;2023-09-19T09:16:26;17.50;99.90
20380;DHT22;10349;48.666;8.948;2023-09-19T09:18:52;17.40;99.90
20380;DHT22;10349;48.666;8.948;2023-09-19T09:21:20;17.50;99.90
20380;DHT22;10349;48.666;8.948;2023-09-19T09:23:48;17.40;99.90
20380;DHT22;10349;48.666;8.948;2023-09-19T09:26:15;17.40;99.90
20380;DHT22;10349;48.666;8.948;2023-09-19T09:28:45;17.40;99.90
20380;DHT22;10349;48.666;8.948;2023-09-19T09:31:24;17.40;99.90
20380;DHT22;10349;48.666;8.948;2023-09-19T09:33:55;17.50;99.90
20380;DHT22;10349;48.666;8.948;2023-09-19T09:36:38;17.50;99.90
20380;DHT22;10349;48.666;8.948;2023-09-19T09:39:06;17.60;99.90
20380;DHT22;10349;48.666;8.948;2023-09-19T09:41:44;17.60;99.90
20380;DHT22;10349;48.666;8.948;2023-09-19T09:44:16;17.70;99.90
20380;DHT22;10349;48.666;8.948;2023-09-19T09:46:47;17.70;99.90
20380;DHT22;10349;48.666;8.948;2023-09-19T09:49:24;17.80;99.90
20380;DHT22;10349;48.666;8.948;2023-09-19T09:52:05;17.70;99.90
20380;DHT22;10349;48.666;8.948;2023-09-19T09:54:35;17.70;99.90
20380;DHT22;10349;48.666;8.948;2023-09-19T09:57:08;17.80;99.90
20380;DHT22;10349;48.666;8.948;2023-09-19T09:59:52;17.80;99.90
20380;DHT22;10349;48.666;8.948;2023-09-19T10:02:35;17.90;99.90
20380;DHT22;10349;48.666;8.948;2023-09-19T10:05:20;17.90;99.90
20380;DHT22;10349;48.666;8.948;2023-09-19T10:08:11;17.80;99.90
20380;DHT22;10349;48.666;8.948;2023-09-19T10:10:39;17.80;99.90
20380;DHT22;10349;48.666;8.948;2023-09-19T10:13:11;17.80;99.90
20380;DHT22;10349;48.666;8.948;2023-09-19T10:15:59;17.80;99.90
20380;DHT22;10349;48.666;8.948;2023-09-19T10:18:34;18.00;99.90
20380;DHT22;10349;48.666;8.948;2023-09-19T10:21:03;18.10;99.90
20380;DHT22;10349;48.666;8.948;2023-09-19T10:23:31;18.10;99.90
20380;DHT22;10349;48.666;8.948;2023-09-19T10:26:02;18.20;99.90
20380;DHT22;10349;48.666;8.948;2023-09-19T10:28:30;18.10;99.90
20380;DHT22;10349;48.666;8.948;2023-09-19T10:30:57;18.20;99.90
20380;DHT22;10349;48.666;8.948;2023-09-19T10:33:36;18.30;99.90
20380;DHT22;10349;48.666;8.948;2023-09-19T10:36:05;18.40;99.90
20380;DHT22;10349;48.666;8.948;2023-09-19T10:38:33;18.40;99.90
20380;DHT22;10349;48.666;8.948;2023-09-19T10:41:01;18.40;99.90
20380;DHT22;10349;48.666;8.948;2023-09-19T10:43:32;18.50;99.90
20380;DHT22;10349;48.666;8.948;2023-09-19T10:46:11;18.50;99.90
20380;DHT22;10349;48.666;8.948;2023-09-19T10:48:39;18.60;99.90
20380;DHT22;10349;48.666;8.948;2023-09-19T10:51:15;18.80;99.90
20380;DHT22;10349;48.666;8.948;2023-09-19T10:54:06;18.90;99.90
20380;DHT22;10349;48.666;8.948;2023-09-19T10:56:38;19.00;99.90
20380;DHT22;10349;48.666;8.948;2023-09-19T10:59:14;19.00;99.90
20380;DHT22;10349;48.666;8.948;2023-09-19T11:01:55;19.00;99.90
20380;DHT22;10349;48.666;8.948;2023-09-19T11:04:29;18.90;99.90
20380;DHT22;10349;48.666;8.948;2023-09-19T11:07:09;19.00;99.90
20380;DHT22;10349;48.666;8.948;2023-09-19T11:09:55;19.20;99.90
20380;DHT22;10349;48.666;8.948;2023-09-19T11:14:57;19.20;99.90
20380;DHT22;10349;48.666;8.948;2023-09-19T11:23:16;18.90;99.90
20380;DHT22;10349;48.666;8.948;2023-09-19T11:25:42;18.90;99.90
20380;DHT22;10349;48.666;8.948;2023-09-19T11:31:43;19.30;99.90
20380;DHT22;10349;48.666;8.948;2023-09-19T11:37:01;19.40;99.90
20380;DHT22;10349;48.666;8.948;2023-09-19T11:39:30;19.60;99.90
20380;DHT22;10349;48.666;8.948;2023-09-19T11:41:56;19.70;99.90
20380;DHT22;10349;48.666;8.948;2023-09-19T11:44:32;19.50;99.90
20380;DHT22;10349;48.666;8.948;2023-09-19T11:47:04;19.50;99.90
20380;DHT22;10349;48.666;8.948;2023-09-19T11:49:32;19.60;99.90
20380;DHT22;10349;48.666;8.948;2023-09-19T11:52:00;19.70;99.90
20380;DHT22;10349;48.666;8.948;2023-09-19T11:54:35;19.80;99.90
20380;DHT22;10349;48.666;8.948;2023-09-19T11:57:03;19.90;99.90
20380;DHT22;10349;48.666;8.948;2023-09-19T11:59:30;19.90;99.90
20380;DHT22;10349;48.666;8.948;2023-09-19T12:01:57;20.00;99.90
20380;DHT22;10349;48.666;8.948;2023-09-19T12:04:44;19.90;99.90
20380;DHT22;10349;48.666;8.948;2023-09-19T12:07:14;20.00;99.90
20380;DHT22;10349;48.666;8.948;2023-09-19T12:09:45;20.10;99.90
20380;DHT22;10349;48.666;8.948;2023-09-19T12:12:23;20.20;99.90
20380;DHT22;10349;48.666;8.948;2023-09-19T12:14:53;20.20;99.90
20380;DHT22;10349;48.666;8.948;2023-09-19T12:17:20;20.20;99.90
20380;DHT22;10349;48.666;8.948;2023-09-19T12:19:53;20.20;99.90
20380;DHT22;10349;48.666;8.948;2023-09-19T12:22:19;20.30;99.90
20380;DHT22;10349;48.666;8.948;2023-09-19T12:24:46;20.50;99.90
20380;DHT22;10349;48.666;8.948;2023-09-19T12:27:12;20.40;99.90
20380;DHT22;10349;48.666;8.948;2023-09-19T12:29:46;20.30;99.90
20380;DHT22;10349;48.666;8.948;2023-09-19T12:32:12;20.30;99.90
20380;DHT22;10349;48.666;8.948;2023-09-19T12:34:39;20.30;99.90
20380;DHT22;10349;48.666;8.948;2023-09-19T12:37:12;20.40;99.90
20380;DHT22;10349;48.666;8.948;2023-09-19T12:39:43;20.40;99.90
20380;DHT22;10349;48.666;8.948;2023-09-19T12:42:12;20.40;99.90
20380;DHT22;10349;48.666;8.948;2023-09-19T12:44:50;20.30;99.90
20380;DHT22;10349;48.666;8.948;2023-09-19T12:47:22;20.30;99.90
20380;DHT22;10349;48.666;8.948;2023-09-19T12:52:44;20.40;99.90
20380;DHT22;10349;48.666;8.948;2023-09-19T12:55:30;20.40;99.90
20380;DHT22;10349;48.666;8.948;2023-09-19T12:58:13;20.40;99.90
20380;DHT22;10349;48.666;8.948;2023-09-19T13:00:44;20.40;99.90
20380;DHT22;10349;48.666;8.948;2023-09-19T13:06:00;20.50;99.90
20380;DHT22;10349;48.666;8.948;2023-09-19T13:11:07;20.60;99.90
20380;DHT22;10349;48.666;8.948;2023-09-19T13:13:39;20.50;99.90
20380;DHT22;10349;48.666;8.948;2023-09-19T13:16:05;20.40;99.90
20380;DHT22;10349;48.666;8.948;2023-09-19T13:18:49;20.40;99.90
20380;DHT22;10349;48.666;8.948;2023-09-19T13:21:34;20.40;99.90
20380;DHT22;10349;48.666;8.948;2023-09-19T13:24:37;20.40;99.90
20380;DHT22;10349;48.666;8.948;2023-09-19T13:27:05;20.50;99.90
20380;DHT22;10349;48.666;8.948;2023-09-19T13:29:32;20.60;99.90
20380;DHT22;10349;48.666;8.948;2023-09-19T13:31:57;20.70;99.90
20380;DHT22;10349;48.666;8.948;2023-09-19T13:34:23;20.70;99.90
20380;DHT22;10349;48.666;8.948;2023-09-19T13:36:50;20.70;99.90
20380;DHT22;10349;48.666;8.948;2023-09-19T13:39:16;20.80;99.90
20380;DHT22;10349;48.666;8.948;2023-09-19T13:41:44;20.90;99.90
20380;DHT22;10349;48.666;8.948;2023-09-19T13:44:10;21.00;99.90
20380;DHT22;10349;48.666;8.948;2023-09-19T13:46:37;20.90;99.90
20380;DHT22;10349;48.666;8.948;2023-09-19T13:49:04;20.70;99.90
20380;DHT22;10349;48.666;8.948;2023-09-19T13:51:31;20.60;99.90
20380;DHT22;10349;48.666;8.948;2023-09-19T13:53:57;20.60;99.90
20380;DHT22;10349;48.666;8.948;2023-09-19T13:56:22;20.60;99.90
20380;DHT22;10349;48.666;8.948;2023-09-19T13:58:49;20.80;99.90
20380;DHT22;10349;48.666;8.948;2023-09-19T14:01:15;20.90;99.90
20380;DHT22;10349;48.666;8.948;2023-09-19T14:03:41;20.90;99.90
20380;DHT22;10349;48.666;8.948;2023-09-19T14:06:13;20.90;99.90
20380;DHT22;10349;48.666;8.948;2023-09-19T14:08:38;21.00;99.90
20380;DHT22;10349;48.666;8.948;2023-09-19T14:11:08;21.10;99.90
20380;DHT22;10349;48.666;8.948;2023-09-19T14:13:34;21.20;99.90
20380;DHT22;10349;48.666;8.948;2023-09-19T14:16:07;21.10;99.90
20380;DHT22;10349;48.666;8.948;2023-09-19T14:18:34;21.00;99.90
20380;DHT22;10349;48.666;8.948;2023-09-19T14:21:06;20.90;99.90
20380;DHT22;10349;48.666;8.948;2023-09-19T14:23:40;21.00;99.90
20380;DHT22;10349;48.666;8.948;2023-09-19T14:26:09;21.10;99.90
20380;DHT22;10349;48.666;8.948;2023-09-19T14:28:36;21.20;99.90
20380;DHT22;10349;48.666;8.948;2023-09-19T14:31:09;21.10;99.90
20380;DHT22;10349;48.666;8.948;2023-09-19T14:33:35;21.20;99.90
20380;DHT22;10349;48.666;8.948;2023-09-19T14:36:09;21.10;99.90
20380;DHT22;10349;48.666;8.948;2023-09-19T14:38:38;21.20;99.90
20380;DHT22;10349;48.666;8.948;2023-09-19T14:41:05;21.20;99.90
20380;DHT22;10349;48.666;8.948;2023-09-19T14:43:32;21.30;99.90
20380;DHT22;10349;48.666;8.948;2023-09-19T14:46:04;21.20;99.90
20380;DHT22;10349;48.666;8.948;2023-09-19T14:48:30;21.20;99.90
20380;DHT22;10349;48.666;8.948;2023-09-19T14:51:05;21.20;99.90
20380;DHT22;10349;48.666;8.948;2023-09-19T14:53:31;21.20;99.90
20380;DHT22;10349;48.666;8.948;2023-09-19T14:55:59;21.20;99.90
20380;DHT22;10349;48.666;8.948;2023-09-19T14:58:25;21.20;99.90
20380;DHT22;10349;48.666;8.948;2023-09-19T15:00:52;21.20;99.90
20380;DHT22;10349;48.666;8.948;2023-09-19T15:03:18;21.30;99.90
20380;DHT22;10349;48.666;8.948;2023-09-19T15:05:44;21.30;99.90
20380;DHT22;10349;48.666;8.948;2023-09-19T15:08:10;21.40;99.90
20380;DHT22;10349;48.666;8.948;2023-09-19T15:10:36;21.40;99.90
20380;DHT22;10349;48.666;8.948;2023-09-19T15:13:03;21.40;99.90
20380;DHT22;10349;48.666;8.948;2023-09-19T15:15:31;21.50;99.90
20380;DHT22;10349;48.666;8.948;2023-09-19T15:18:00;21.70;99.90
20380;DHT22;10349;48.666;8.948;2023-09-19T15:20:26;21.70;99.90
20380;DHT22;10349;48.666;8.948;2023-09-19T15:22:51;21.70;99.90
20380;DHT22;10349;48.666;8.948;2023-09-19T15:25:17;21.80;99.90
20380;DHT22;10349;48.666;8.948;2023-09-19T15:27:42;21.60;99.90
20380;DHT22;10349;48.666;8.948;2023-09-19T15:30:10;21.60;99.90
20380;DHT22;10349;48.666;8.948;2023-09-19T15:32:37;21.60;99.90
20380;DHT22;10349;48.666;8.948;2023-09-19T15:35:04;21.60;99.90
20380;DHT22;10349;48.666;8.948;2023-09-19T15:37:29;21.60;99.90
20380;DHT22;10349;48.666;8.948;2023-09-19T15:39:55;21.60;99.90
20380;DHT22;10349;48.666;8.948;2023-09-19T15:42:21;21.60;99.90
20380;DHT22;10349;48.666;8.948;2023-09-19T15:44:46;21.50;99.90
20380;DHT22;10349;48.666;8.948;2023-09-19T15:47:15;21.40;99.90
20380;DHT22;10349;48.666;8.948;2023-09-19T15:49:40;21.40;99.90
20380;DHT22;10349;48.666;8.948;2023-09-19T15:52:07;21.50;99.90
20380;DHT22;10349;48.666;8.948;2023-09-19T15:54:34;21.40;99.90
20380;DHT22;10349;48.666;8.948;2023-09-19T15:57:03;21.40;99.90
20380;DHT22;10349;48.666;8.948;2023-09-19T15:59:29;21.30;99.90
20380;DHT22;10349;48.666;8.948;2023-09-19T16:01:55;21.30;99.90
20380;DHT22;10349;48.666;8.948;2023-09-19T16:04:21;21.30;99.90
20380;DHT22;10349;48.666;8.948;2023-09-19T16:06:48;21.30;99.90
20380;DHT22;10349;48.666;8.948;2023-09-19T16:09:14;21.20;99.90
20380;DHT22;10349;48.666;8.948;2023-09-19T16:11:40;21.20;99.90
20380;DHT22;10349;48.666;8.948;2023-09-19T16:14:07;21.30;99.90
20380;DHT22;10349;48.666;8.948;2023-09-19T16:16:35;21.20;99.90